Strona główna
METAR-TAF:

METAR-TAF

Lotnisko :

Hrabstwo Ocean, New Jersey, Stany Zjednoczone

Szerokość geograficzna: 39-55-39N, Długość geograficzna: 074-17-33W, wysokość: 25 m

Aktualna obserwacja pogody

Raport powstał 30 minut temu, godzina 09:56 UTC
Cisza
Temperatura -3°C
Wilgotność 93%
Ciśnienie 1025 hPa
Widzialność: 16.1 km
bezchmurnie

METAR: KMJX 220956Z AUTO 00000KT 10SM CLR M03/M04 A3026 RMK AO2 SLP253 T10331039 FZRANO

czas: 06:26 (10:26 UTC)


TAF: brakujący

Obserwacja i prognoza pogody dla ponad 4000 lotnisk (raport METAR i TAF).

Dostępne stacje oznaczono żółtymi i czerwonymi punktami na mapie.

Najedź kursorem aby zobaczyć nazwę stacji.

Kliknij aby zobaczyć obserwacje i prognozy pogody.

Aby zmienić mapę: kliknij na zielony przycisk z czarnym krzyżykiem, aby powiększyć; na zielony przycisk z myślnikiem, aby pomniejszyć; na zielone strzałki, aby przejść do map sąsiednich.


METAR-TAF: